Time;durP1;ratioP1;P1;durP2;ratioP2;P2;SDS_P1;SDS_P2;PMS_P1;PMS_P2;Temp;Humidity;BMP_temperature;BMP_pressure;BME280_temperature;BME280_humidity;BME280_pressure;Samples;Min_cycle;Max_cycle;Signal;HPM_P1;HPM_P2
2022/04/26 03:38:12;;;;;;;17.65;4.50;;;7.30;99.90;;;;;;5047568;28;20442;-69
2022/04/26 03:40:38;;;;;;;15.85;4.68;;;7.30;99.90;;;;;;5046575;28;20052;-69
2022/04/26 03:43:03;;;;;;;25.02;5.22;;;7.30;99.90;;;;;;5047932;28;20057;-69
2022/04/26 03:45:29;;;;;;;16.35;4.47;;;7.30;99.90;;;;;;5046278;28;20056;-67
2022/04/26 03:47:55;;;;;;;18.20;4.60;;;7.30;99.90;;;;;;5047088;28;20055;-69
2022/04/26 03:50:21;;;;;;;22.77;5.18;;;7.30;99.90;;;;;;5030425;28;20049;-68
2022/04/26 03:52:47;;;;;;;23.08;4.53;;;7.30;99.90;;;;;;5046765;28;20049;-68
2022/04/26 03:55:12;;;;;;;17.20;4.75;;;7.30;99.90;;;;;;5047286;28;20544;-67
2022/04/26 03:57:38;;;;;;;21.10;4.53;;;7.30;99.90;;;;;;5046105;28;20058;-69
2022/04/26 04:00:06;;;;;;;20.95;4.13;;;7.20;99.90;;;;;;5047280;28;20049;-69
2022/04/26 04:02:32;;;;;;;25.35;3.90;;;7.20;99.90;;;;;;5046046;28;20045;-69
2022/04/26 04:04:59;;;;;;;14.77;3.72;;;7.30;99.90;;;;;;5048519;28;20045;-69
2022/04/26 04:07:25;;;;;;;19.65;4.18;;;7.20;99.90;;;;;;5029699;28;20053;-68
2022/04/26 04:09:52;;;;;;;13.48;4.05;;;7.30;99.90;;;;;;5030149;28;20049;-68
2022/04/26 04:12:17;;;;;;;20.73;4.28;;;7.20;99.90;;;;;;5030657;28;20053;-69
2022/04/26 04:14:43;;;;;;;20.60;4.63;;;7.20;99.90;;;;;;5046000;28;20057;-68
2022/04/26 04:17:09;;;;;;;21.83;4.03;;;7.30;99.90;;;;;;5046909;28;20087;-68
2022/04/26 04:19:36;;;;;;;17.30;4.30;;;7.20;99.90;;;;;;5045430;28;20052;-69
2022/04/26 04:22:02;;;;;;;16.38;3.80;;;7.30;99.90;;;;;;5030501;28;20128;-68
2022/04/26 04:24:28;;;;;;;21.08;4.07;;;7.30;99.90;;;;;;5046235;28;20666;-67
2022/04/26 04:26:53;;;;;;;19.70;4.07;;;7.40;99.90;;;;;;5047236;28;20087;-69
2022/04/26 04:29:19;;;;;;;19.25;3.88;;;7.40;99.90;;;;;;5046576;28;20053;-67
2022/04/26 04:31:45;;;;;;;16.55;3.88;;;7.40;99.90;;;;;;5042722;28;20042;-68
2022/04/26 04:34:11;;;;;;;9.20;2.88;;;7.40;99.90;;;;;;5010663;28;20136;-69
2022/04/26 04:36:36;;;;;;;16.10;3.78;;;7.40;99.90;;;;;;5025738;28;20131;-68
2022/04/26 04:39:03;;;;;;;19.40;4.05;;;7.40;99.90;;;;;;5043334;28;20447;-69
2022/04/26 04:41:35;;;;;;;16.92;4.10;;;7.40;99.90;;;;;;5045073;28;20507;-69
2022/04/26 04:44:02;;;;;;;19.25;3.85;;;7.40;99.90;;;;;;5046216;28;20128;-69
2022/04/26 04:46:27;;;;;;;23.75;4.15;;;7.40;99.90;;;;;;5046127;28;20123;-70
2022/04/26 04:48:54;;;;;;;16.40;3.58;;;7.40;99.90;;;;;;5045741;28;20851;-68
2022/04/26 04:51:20;;;;;;;22.67;3.58;;;7.40;99.90;;;;;;5029721;28;20084;-69
2022/04/26 04:53:46;;;;;;;16.42;3.72;;;7.40;99.90;;;;;;5046853;28;20096;-69
2022/04/26 04:56:11;;;;;;;37.33;4.93;;;7.40;99.90;;;;;;5046456;28;20045;-68
2022/04/26 04:58:38;;;;;;;20.17;3.67;;;7.40;99.90;;;;;;5025233;28;20057;-69
2022/04/26 05:01:04;;;;;;;16.77;3.22;;;7.40;99.90;;;;;;5029007;28;20057;-69
2022/04/26 05:03:29;;;;;;;20.92;3.70;;;7.40;99.90;;;;;;5045452;28;20047;-69
2022/04/26 05:05:55;;;;;;;18.85;4.05;;;7.40;99.90;;;;;;5029470;28;20143;-69
2022/04/26 05:08:20;;;;;;;19.85;4.05;;;7.50;99.90;;;;;;5045820;28;20053;-69
2022/04/26 05:10:46;;;;;;;13.95;3.38;;;7.40;99.90;;;;;;5045107;28;20052;-69
2022/04/26 05:13:12;;;;;;;13.90;3.58;;;7.50;99.90;;;;;;5046535;28;20098;-69
2022/04/26 05:15:38;;;;;;;22.33;3.40;;;7.50;99.90;;;;;;5044815;28;20076;-69
2022/04/26 05:18:05;;;;;;;17.05;3.80;;;7.50;99.90;;;;;;5047327;28;20049;-69
2022/04/26 05:20:34;;;;;;;20.88;3.65;;;7.50;99.90;;;;;;5043512;28;20053;-69
2022/04/26 05:25:45;;;;;;;20.58;4.15;;;7.60;99.90;;;;;;5046358;28;20048;-69
2022/04/26 05:28:11;;;;;;;21.48;3.63;;;7.60;99.90;;;;;;5027986;28;20056;-69
2022/04/26 05:30:37;;;;;;;15.82;3.83;;;7.70;99.90;;;;;;5043998;28;20103;-69
2022/04/26 05:33:02;;;;;;;13.25;3.30;;;7.80;99.90;;;;;;5043998;28;20045;-69
2022/04/26 05:35:28;;;;;;;18.80;3.20;;;7.90;99.90;;;;;;5044477;28;20045;-69
2022/04/26 05:37:53;;;;;;;20.80;3.70;;;7.90;99.90;;;;;;5043957;28;20044;-70
2022/04/26 05:40:19;;;;;;;15.50;4.03;;;7.90;99.90;;;;;;5044264;28;20579;-69
2022/04/26 05:42:48;;;;;;;8.95;3.13;;;8.00;99.90;;;;;;5060921;28;20120;-69
2022/04/26 05:45:14;;;;;;;16.08;3.95;;;8.10;99.90;;;;;;5044320;28;20132;-69
2022/04/26 05:47:44;;;;;;;8.48;3.08;;;8.20;99.90;;;;;;5043958;28;20087;-69
2022/04/26 05:50:11;;;;;;;13.65;3.97;;;8.10;99.90;;;;;;5043410;28;20048;-69
2022/04/26 05:52:37;;;;;;;15.35;4.03;;;8.20;99.90;;;;;;5044650;28;20037;-69
2022/04/26 05:55:10;;;;;;;12.32;3.25;;;8.30;99.90;;;;;;5030143;28;20087;-69
2022/04/26 05:57:40;;;;;;;19.10;3.53;;;8.40;99.90;;;;;;5031250;28;20048;-69
2022/04/26 06:00:11;;;;;;;27.52;4.32;;;8.50;99.90;;;;;;5047340;28;20057;-69
2022/04/26 06:02:37;;;;;;;14.18;3.28;;;8.50;99.90;;;;;;5030504;28;20100;-69
2022/04/26 06:05:03;;;;;;;14.45;3.08;;;8.50;99.90;;;;;;5031850;28;20088;-69
2022/04/26 06:07:29;;;;;;;10.95;2.83;;;8.50;99.90;;;;;;5047055;28;20124;-69
2022/04/26 06:09:56;;;;;;;8.23;2.53;;;8.50;99.90;;;;;;5048582;28;20052;-69
2022/04/26 06:12:26;;;;;;;15.80;3.28;;;8.60;99.90;;;;;;5046899;28;20071;-69
2022/04/26 06:14:52;;;;;;;;;;;8.60;99.90;;;;;;5049164;28;20446;-68
2022/04/26 06:17:18;;;;;;;15.15;3.70;;;8.60;99.90;;;;;;5047339;28;19925;-69
2022/04/26 06:19:44;;;;;;;18.98;3.50;;;8.60;99.90;;;;;;5047367;28;20099;-69
2022/04/26 06:22:09;;;;;;;15.85;2.80;;;8.70;99.90;;;;;;5046702;28;20582;-69
2022/04/26 06:24:35;;;;;;;11.90;2.90;;;8.80;99.90;;;;;;5045492;28;20057;-68
2022/04/26 06:27:02;;;;;;;16.85;3.03;;;8.90;99.90;;;;;;5030496;28;20049;-68
2022/04/26 06:29:28;;;;;;;12.48;3.05;;;8.80;99.90;;;;;;5046200;28;20063;-69
2022/04/26 06:31:54;;;;;;;12.35;2.47;;;8.70;99.90;;;;;;5027888;28;20076;-69
2022/04/26 06:34:20;;;;;;;12.32;2.67;;;8.50;99.90;;;;;;5026619;28;20088;-68
2022/04/26 06:36:46;;;;;;;13.90;2.42;;;8.50;99.90;;;;;;5027036;28;20045;-69
2022/04/26 06:39:12;;;;;;;7.70;2.40;;;8.50;99.90;;;;;;5027647;28;20692;-69
2022/04/26 06:41:38;;;;;;;13.20;2.40;;;8.60;99.90;;;;;;5026829;28;20092;-68
2022/04/26 06:44:04;;;;;;;11.13;2.72;;;8.50;99.90;;;;;;5045410;28;20087;-69
2022/04/26 06:46:30;;;;;;;11.13;2.55;;;8.50;99.90;;;;;;5029568;28;20061;-68
2022/04/26 06:48:58;;;;;;;9.35;2.28;;;8.50;99.90;;;;;;5047193;28;20057;-68
2022/04/26 06:51:30;;;;;;;11.75;2.42;;;8.60;99.90;;;;;;5046408;28;20049;-69
2022/04/26 06:53:56;;;;;;;10.15;2.28;;;8.60;99.90;;;;;;5046786;28;20522;-69
2022/04/26 06:56:22;;;;;;;10.40;2.28;;;8.60;99.90;;;;;;5046922;28;20045;-69
2022/04/26 06:58:48;;;;;;;15.80;2.97;;;8.50;99.90;;;;;;5046352;28;20061;-69
2022/04/26 07:01:13;;;;;;;12.32;2.55;;;8.50;99.90;;;;;;5030023;28;20048;-68
2022/04/26 07:03:39;;;;;;;14.63;2.55;;;8.60;99.90;;;;;;5045986;28;20490;-69
2022/04/26 07:06:05;;;;;;;7.07;2.40;;;8.60;99.90;;;;;;5046596;28;20099;-68
2022/04/26 07:08:30;;;;;;;10.45;2.83;;;8.60;99.90;;;;;;5028949;28;20094;-69
2022/04/26 07:10:56;;;;;;;10.07;3.33;;;8.80;99.90;;;;;;5046985;28;20120;-68
2022/04/26 07:13:22;;;;;;;8.32;3.03;;;9.00;99.90;;;;;;5046019;28;20049;-68
2022/04/26 07:15:48;;;;;;;7.10;2.67;;;8.90;99.90;;;;;;5046107;28;20049;-69
2022/04/26 07:18:14;;;;;;;12.98;2.72;;;9.10;99.90;;;;;;5046691;28;20283;-68
2022/04/26 07:20:40;;;;;;;12.63;2.78;;;9.10;99.90;;;;;;5045492;28;20578;-69
2022/04/26 07:23:07;;;;;;;11.48;2.47;;;9.10;99.90;;;;;;5038419;28;20630;-69
2022/04/26 07:25:33;;;;;;;12.68;3.10;;;9.30;99.90;;;;;;5018326;28;20051;-68
2022/04/26 07:27:59;;;;;;;10.80;2.47;;;9.40;99.90;;;;;;5043918;28;20495;-69
2022/04/26 07:30:34;;;;;;;14.60;2.83;;;9.40;99.90;;;;;;5043851;28;20044;-69
2022/04/26 07:36:06;;;;;;;15.30;2.72;;;9.30;99.90;;;;;;5004974;28;20489;-69
2022/04/26 07:38:32;;;;;;;9.60;2.45;;;9.20;99.90;;;;;;4987203;28;20042;-68
2022/04/26 07:40:57;;;;;;;22.23;3.13;;;9.20;99.90;;;;;;5014270;28;20167;-69
2022/04/26 07:43:23;;;;;;;9.63;2.35;;;9.20;99.90;;;;;;5044948;28;20523;-68
2022/04/26 07:45:49;;;;;;;5.28;2.30;;;9.20;99.90;;;;;;5045540;28;20048;-69
2022/04/26 07:48:16;;;;;;;8.65;2.10;;;9.30;99.90;;;;;;5045813;28;20136;-70
2022/04/26 07:50:44;;;;;;;8.43;2.08;;;9.30;99.90;;;;;;5045203;28;20493;-70
2022/04/26 07:53:10;;;;;;;10.00;2.30;;;9.30;99.90;;;;;;5045600;28;20498;-69
2022/04/26 07:55:40;;;;;;;10.88;2.65;;;9.80;99.90;;;;;;5044842;28;20115;-68
2022/04/26 07:58:05;;;;;;;6.95;2.22;;;10.20;99.90;;;;;;5029382;28;20045;-69
2022/04/26 08:00:31;;;;;;;9.85;2.83;;;10.30;99.90;;;;;;5044670;28;20056;-68
2022/04/26 08:02:57;;;;;;;15.40;2.30;;;10.40;99.90;;;;;;5044798;28;20076;-69
2022/04/26 08:05:23;;;;;;;15.38;3.15;;;10.30;99.90;;;;;;5045463;28;20053;-68
2022/04/26 08:07:49;;;;;;;5.95;1.95;;;10.40;96.60;;;;;;5041574;28;20905;-69
2022/04/26 08:10:15;;;;;;;9.07;2.17;;;10.50;99.40;;;;;;5025438;28;20049;-68
2022/04/26 08:12:42;;;;;;;7.57;2.40;;;10.30;98.10;;;;;;5024851;28;20053;-69
2022/04/26 08:15:14;;;;;;;12.80;2.25;;;10.00;97.90;;;;;;5025577;28;20052;-68
2022/04/26 08:17:41;;;;;;;7.47;1.95;;;10.10;96.60;;;;;;5023692;28;20088;-68
2022/04/26 08:20:12;;;;;;;8.10;2.28;;;10.20;97.80;;;;;;5029458;28;20475;-69
2022/04/26 08:22:38;;;;;;;8.35;1.95;;;10.60;98.50;;;;;;5027375;28;20045;-68
2022/04/26 08:27:49;;;;;;;12.93;2.33;;;10.70;94.90;;;;;;5044443;28;20052;-69
2022/04/26 08:30:16;;;;;;;6.03;2.13;;;10.60;95.40;;;;;;5041183;28;20045;-68
2022/04/26 08:32:47;;;;;;;8.43;1.92;;;10.30;94.50;;;;;;5039925;28;20114;-68
2022/04/26 08:35:23;;;;;;;5.97;2.00;;;10.10;93.10;;;;;;5043551;28;20064;-69
2022/04/26 08:37:49;;;;;;;11.35;2.53;;;10.20;94.90;;;;;;5045916;28;20487;-68
2022/04/26 08:40:16;;;;;;;11.25;2.63;;;10.90;97.10;;;;;;5044587;28;20103;-68
2022/04/26 08:42:43;;;;;;;9.90;2.58;;;11.30;95.20;;;;;;5027706;28;20998;-68
2022/04/26 08:45:11;;;;;;;10.02;2.03;;;11.10;92.70;;;;;;5034190;28;20446;-68
2022/04/26 08:53:13;;;;;;;16.38;2.10;;;11.00;91.10;;;;;;5032321;28;20051;-68
2022/04/26 08:55:44;;;;;;;10.10;2.50;;;11.10;94.70;;;;;;5044035;28;20667;-68
2022/04/26 08:58:12;;;;;;;10.15;2.08;;;11.30;91.10;;;;;;5044511;28;20399;-68
2022/04/26 09:01:07;;;;;;;6.50;2.22;;;11.30;92.40;;;;;;5043896;28;20053;-69
2022/04/26 09:03:54;;;;;;;6.20;2.00;;;11.20;91.10;;;;;;5039421;28;20056;-68
2022/04/26 09:06:21;;;;;;;7.95;2.63;;;11.20;86.30;;;;;;5043285;28;20040;-69
2022/04/26 09:08:51;;;;;;;9.70;2.13;;;11.00;90.40;;;;;;5043516;28;20095;-68
2022/04/26 09:11:27;;;;;;;8.55;2.08;;;11.20;88.90;;;;;;5043581;28;20081;-69
2022/04/26 09:13:54;;;;;;;5.60;1.55;;;11.10;86.50;;;;;;5022370;28;20044;-69
2022/04/26 09:16:22;;;;;;;4.18;2.17;;;10.80;85.10;;;;;;5045838;28;20423;-69
2022/04/26 09:18:58;;;;;;;5.45;2.20;;;10.60;89.10;;;;;;5032773;28;20116;-69
2022/04/26 09:21:27;;;;;;;5.35;1.60;;;10.50;90.70;;;;;;5022241;28;20492;-70
2022/04/26 09:23:57;;;;;;;6.95;2.30;;;10.40;90.80;;;;;;5032071;28;20041;-69
2022/04/26 09:26:23;;;;;;;;;;;10.60;90.70;;;;;;5043182;28;20921;-68
2022/04/26 09:28:53;;;;;;;14.55;2.50;;;10.70;91.30;;;;;;5044927;28;19947;-69
2022/04/26 09:31:22;;;;;;;8.18;2.20;;;11.00;90.90;;;;;;5047763;28;20073;-68
2022/04/26 09:33:51;;;;;;;7.43;2.13;;;11.10;91.30;;;;;;5031074;28;20150;-68
2022/04/26 09:36:20;;;;;;;12.60;2.35;;;11.20;92.40;;;;;;5047781;28;20395;-69
2022/04/26 09:38:56;;;;;;;11.95;2.30;;;11.40;81.00;;;;;;5047527;28;20052;-68
2022/04/26 09:41:25;;;;;;;5.25;1.88;;;11.50;81.70;;;;;;5031291;28;20395;-69
2022/04/26 09:44:08;;;;;;;9.23;2.30;;;11.60;81.60;;;;;;5036048;28;20094;-68
2022/04/26 09:46:40;;;;;;;7.28;2.00;;;11.60;81.10;;;;;;5046547;28;20502;-68
2022/04/26 09:49:10;;;;;;;5.32;1.85;;;11.80;85.30;;;;;;5045783;28;20051;-69
2022/04/26 09:51:40;;;;;;;7.47;1.90;;;11.90;79.40;;;;;;5047825;28;20041;-68
2022/04/26 09:54:06;;;;;;;;;;;11.90;80.70;;;;;;5043915;28;20467;-68
2022/04/26 09:56:43;;;;;;;4.88;1.73;;;12.00;84.70;;;;;;5059802;28;19966;-68
2022/04/26 09:59:14;;;;;;;9.48;1.90;;;12.20;82.80;;;;;;5042786;28;20044;-68
2022/04/26 10:01:47;;;;;;;3.78;1.42;;;12.10;78.50;;;;;;5046251;28;20797;-68
2022/04/26 10:04:20;;;;;;;7.55;1.70;;;12.10;70.20;;;;;;5026847;28;20079;-67
2022/04/26 10:06:49;;;;;;;9.52;1.85;;;11.90;64.40;;;;;;5037134;28;20037;-67
2022/04/26 10:09:16;;;;;;;11.88;2.40;;;11.90;75.60;;;;;;5031012;28;20061;-68
2022/04/26 10:11:42;;;;;;;4.75;1.92;;;11.90;83.00;;;;;;5030460;28;20144;-68
2022/04/26 10:14:09;;;;;;;11.35;2.05;;;11.80;79.90;;;;;;5043554;28;20641;-69
2022/04/26 10:16:36;;;;;;;6.43;2.10;;;11.90;83.60;;;;;;5033657;28;20490;-69
2022/04/26 10:19:07;;;;;;;4.68;1.83;;;12.00;78.80;;;;;;5046163;28;20075;-69
2022/04/26 10:21:38;;;;;;;4.97;2.05;;;11.90;79.30;;;;;;5030933;28;20136;-68
2022/04/26 10:24:19;;;;;;;9.43;1.70;;;12.00;83.80;;;;;;5046246;28;20055;-68
2022/04/26 10:26:46;;;;;;;4.63;1.73;;;12.00;84.60;;;;;;5012751;28;20065;-68
2022/04/26 10:29:17;;;;;;;6.28;2.25;;;12.00;79.10;;;;;;5033143;28;20052;-69
2022/04/26 10:31:55;;;;;;;5.57;1.55;;;12.10;84.30;;;;;;5034575;28;20044;-68
2022/04/26 10:34:23;;;;;;;7.43;1.75;;;12.00;77.50;;;;;;5045793;28;20127;-69
2022/04/26 10:36:53;;;;;;;10.95;2.30;;;12.00;78.70;;;;;;5044997;28;20047;-69
2022/04/26 10:39:21;;;;;;;8.73;2.45;;;11.90;75.70;;;;;;5045238;28;20048;-69
2022/04/26 10:41:47;;;;;;;5.80;1.95;;;12.00;71.50;;;;;;5029922;28;20053;-69
2022/04/26 10:44:13;;;;;;;9.35;1.80;;;12.10;84.80;;;;;;5025720;28;20045;-69
2022/04/26 10:46:52;;;;;;;8.23;1.75;;;11.90;72.80;;;;;;5041139;28;20090;-69
2022/04/26 10:49:29;;;;;;;11.90;2.83;;;11.80;71.40;;;;;;5044330;28;20120;-69
2022/04/26 10:51:56;;;;;;;6.78;1.77;;;11.90;82.10;;;;;;5043458;28;20098;-69
2022/04/26 10:54:46;;;;;;;9.68;2.05;;;12.00;85.30;;;;;;5046741;28;20064;-69
2022/04/26 10:57:17;;;;;;;8.63;2.25;;;12.20;72.40;;;;;;5046626;28;20044;-69
2022/04/26 10:59:43;;;;;;;11.00;2.20;;;12.00;67.70;;;;;;5034386;28;20149;-69
2022/04/26 11:02:14;;;;;;;7.20;1.85;;;12.00;69.50;;;;;;5033746;28;20079;-69
2022/04/26 11:04:40;;;;;;;9.10;2.40;;;12.10;80.30;;;;;;5046031;28;20468;-69
2022/04/26 11:07:14;;;;;;;6.45;1.67;;;12.10;74.10;;;;;;5028449;28;20074;-68
2022/04/26 11:09:49;;;;;;;7.30;2.00;;;11.80;71.50;;;;;;5045224;28;20127;-70
2022/04/26 11:12:36;;;;;;;8.00;2.00;;;11.90;80.60;;;;;;5046606;28;20538;-69
2022/04/26 11:15:23;;;;;;;10.60;2.38;;;11.90;66.90;;;;;;5046253;28;20049;-69
2022/04/26 11:17:51;;;;;;;9.38;2.08;;;11.80;73.50;;;;;;5046186;28;20476;-70
2022/04/26 11:20:18;;;;;;;8.57;2.20;;;11.90;83.10;;;;;;5045296;28;20049;-69
2022/04/26 11:22:53;;;;;;;8.30;2.03;;;12.00;68.10;;;;;;5046410;28;20602;-69
2022/04/26 11:28:09;;;;;;;8.60;1.98;;;12.10;66.60;;;;;;5040873;28;20053;-69
2022/04/26 11:30:45;;;;;;;6.03;1.83;;;11.90;62.60;;;;;;5045752;28;20868;-69
2022/04/26 11:33:15;;;;;;;8.45;2.47;;;11.90;72.70;;;;;;5029530;28;20049;-70
2022/04/26 11:35:41;;;;;;;7.28;2.00;;;11.90;65.50;;;;;;5039840;28;20033;-70
2022/04/26 11:38:14;;;;;;;5.28;1.83;;;12.00;69.30;;;;;;5028157;28;20052;-70
2022/04/26 11:40:42;;;;;;;4.65;1.98;;;11.90;70.60;;;;;;5027833;28;20442;-69
2022/04/26 11:43:12;;;;;;;6.22;1.90;;;11.90;69.20;;;;;;5044248;28;20052;-70
2022/04/26 11:45:41;;;;;;;8.05;1.95;;;12.00;62.70;;;;;;5045065;28;20151;-69
2022/04/26 11:48:09;;;;;;;5.07;1.80;;;12.00;74.50;;;;;;5043370;28;20049;-68
2022/04/26 11:50:36;;;;;;;4.95;1.63;;;12.10;69.30;;;;;;5045953;28;20506;-70
2022/04/26 11:53:10;;;;;;;8.57;2.40;;;12.20;67.30;;;;;;5045994;28;20053;-69
2022/04/26 11:55:37;;;;;;;4.93;1.80;;;12.10;75.70;;;;;;5045305;28;20053;-69
2022/04/26 11:58:18;;;;;;;12.23;2.03;;;12.20;69.80;;;;;;5034999;28;20045;-70
2022/04/26 12:01:15;;;;;;;8.88;2.00;;;12.10;62.10;;;;;;5026172;28;20107;-69
2022/04/26 12:03:51;;;;;;;7.88;1.85;;;12.20;68.10;;;;;;5041222;28;20055;-69
2022/04/26 12:06:28;;;;;;;11.32;2.25;;;12.00;66.10;;;;;;5043988;28;20053;-70
2022/04/26 12:08:59;;;;;;;9.35;2.00;;;12.00;74.90;;;;;;5045736;28;20405;-70
2022/04/26 12:11:35;;;;;;;4.38;1.88;;;11.90;65.20;;;;;;5044873;28;20099;-70
2022/04/26 12:14:02;;;;;;;7.07;1.77;;;12.10;64.70;;;;;;5025817;28;20140;-70
2022/04/26 12:16:31;;;;;;;6.80;1.95;;;11.90;59.00;;;;;;5044972;28;20041;-70
2022/04/26 12:19:01;;;;;;;8.68;2.20;;;11.80;72.00;;;;;;5045293;28;20505;-70
2022/04/26 12:21:26;;;;;;;;;;;11.90;69.50;;;;;;5045513;28;20052;-70
2022/04/26 12:24:21;;;;;;;7.15;2.20;;;12.00;62.20;;;;;;5045060;28;19990;-70
2022/04/26 12:26:58;;;;;;;8.85;1.90;;;12.10;73.70;;;;;;5045057;28;20056;-70
2022/04/26 12:29:46;;;;;;;10.27;1.95;;;12.10;62.50;;;;;;5044223;28;20060;-72
2022/04/26 12:32:14;;;;;;;7.53;1.98;;;12.10;61.30;;;;;;5043251;28;20056;-69
2022/04/26 12:34:51;;;;;;;8.90;2.42;;;12.20;61.80;;;;;;5045179;28;20049;-70
2022/04/26 12:37:22;;;;;;;8.90;1.95;;;12.10;56.30;;;;;;5043769;28;20167;-69
2022/04/26 12:39:51;;;;;;;9.52;1.75;;;12.10;71.90;;;;;;5045238;28;20081;-69
2022/04/26 12:42:42;;;;;;;7.60;2.10;;;12.20;69.70;;;;;;5024097;28;20422;-70
2022/04/26 12:45:13;;;;;;;6.97;1.88;;;12.00;76.00;;;;;;5033680;28;20068;-70
2022/04/26 12:50:28;;;;;;;3.00;1.58;;;11.90;68.00;;;;;;5043637;28;20080;-69
2022/04/26 12:53:06;;;;;;;5.80;1.70;;;12.00;67.40;;;;;;5044780;28;20566;-70
2022/04/26 12:55:42;;;;;;;7.95;1.65;;;12.10;63.20;;;;;;5045156;28;20080;-69
2022/04/26 12:58:18;;;;;;;6.03;1.40;;;12.20;62.60;;;;;;5043860;28;20049;-70
2022/04/26 13:00:52;;;;;;;4.03;1.83;;;12.30;51.00;;;;;;5045180;28;20382;-70
2022/04/26 13:03:24;;;;;;;7.68;1.90;;;12.30;60.50;;;;;;5038684;28;20041;-69
2022/04/26 13:05:54;;;;;;;4.60;1.92;;;12.20;55.20;;;;;;5045098;28;20037;-69
2022/04/26 13:08:21;;;;;;;5.03;1.45;;;12.00;66.80;;;;;;5043722;28;20836;-69
2022/04/26 13:10:48;;;;;;;5.68;2.08;;;12.20;67.10;;;;;;5044568;28;20049;-70
2022/04/26 13:13:15;;;;;;;9.88;2.17;;;12.20;60.10;;;;;;5027672;28;20048;-70
2022/04/26 13:15:42;;;;;;;12.88;2.20;;;12.10;65.30;;;;;;5027434;28;20053;-70
2022/04/26 13:18:15;;;;;;;8.40;1.95;;;12.30;62.20;;;;;;5024495;28;20704;-69
2022/04/26 13:20:43;;;;;;;9.68;2.53;;;12.30;61.00;;;;;;5041021;28;20099;-69
2022/04/26 13:23:09;;;;;;;6.45;1.80;;;12.40;71.20;;;;;;5041249;28;20049;-70
2022/04/26 13:25:35;;;;;;;5.97;1.70;;;12.50;65.40;;;;;;5043995;28;20127;-69
2022/04/26 13:28:06;;;;;;;7.80;2.17;;;12.40;61.20;;;;;;5060671;28;20135;-69
2022/04/26 13:30:32;;;;;;;9.05;2.35;;;12.50;66.00;;;;;;5044470;28;20055;-70
2022/04/26 13:32:58;;;;;;;6.65;1.88;;;12.40;61.40;;;;;;5040136;28;20143;-69
2022/04/26 13:35:25;;;;;;;10.52;2.17;;;12.30;71.20;;;;;;5046018;28;20041;-70
2022/04/26 13:37:52;;;;;;;5.00;2.00;;;12.00;59.10;;;;;;5043856;28;20053;-69
2022/04/26 13:40:19;;;;;;;6.13;1.60;;;12.00;69.80;;;;;;5023780;28;20053;-69
2022/04/26 13:42:45;;;;;;;4.53;1.95;;;12.00;62.40;;;;;;5024284;28;20053;-69
2022/04/26 13:45:11;;;;;;;8.27;1.90;;;11.90;75.20;;;;;;5039194;28;20084;-69
2022/04/26 13:47:38;;;;;;;3.33;1.65;;;12.00;68.90;;;;;;5043731;28;20079;-70
2022/04/26 13:50:08;;;;;;;5.68;1.60;;;12.10;61.70;;;;;;5036203;28;20119;-70
2022/04/26 13:52:34;;;;;;;5.47;1.83;;;12.20;66.90;;;;;;5033141;28;20072;-70
2022/04/26 13:55:00;;;;;;;6.63;1.90;;;12.30;64.30;;;;;;5023754;28;20037;-69
2022/04/26 13:57:26;;;;;;;5.00;1.60;;;12.30;59.10;;;;;;5028188;28;20042;-70
2022/04/26 13:59:52;;;;;;;7.05;2.10;;;12.20;53.00;;;;;;5021315;28;20073;-70
2022/04/26 14:02:19;;;;;;;5.63;1.33;;;12.30;51.50;;;;;;5041333;28;20080;-69
2022/04/26 14:04:47;;;;;;;4.10;1.75;;;12.20;40.70;;;;;;5042269;28;20049;-70
2022/04/26 14:07:14;;;;;;;6.07;1.50;;;12.10;59.30;;;;;;5040864;28;20045;-70
2022/04/26 14:09:40;;;;;;;6.43;1.63;;;12.20;62.10;;;;;;5041670;28;20045;-69
2022/04/26 14:12:08;;;;;;;5.22;1.55;;;12.30;61.90;;;;;;5040832;28;20623;-69
2022/04/26 14:23:09;;;;;;;6.90;1.77;;;12.80;58.30;;;;;;5028917;28;20131;-70
2022/04/26 14:25:37;;;;;;;4.50;1.50;;;12.50;59.50;;;;;;5035284;28;20452;-70
2022/04/26 14:28:04;;;;;;;10.05;1.70;;;12.40;61.50;;;;;;5040887;28;20483;-70
2022/04/26 14:30:29;;;;;;;11.15;1.90;;;12.30;52.10;;;;;;5039880;28;20491;-71
2022/04/26 14:32:55;;;;;;;8.75;1.83;;;12.20;62.50;;;;;;5044224;28;20094;-70
2022/04/26 14:35:21;;;;;;;4.20;1.42;;;12.20;51.90;;;;;;5044840;28;20106;-70
2022/04/26 14:37:48;;;;;;;6.15;1.55;;;12.20;55.40;;;;;;5044959;28;20045;-69
2022/04/26 14:40:14;;;;;;;8.02;2.00;;;12.20;50.90;;;;;;5045440;28;20057;-70
2022/04/26 14:42:45;;;;;;;3.45;1.65;;;12.20;54.90;;;;;;5043344;28;20048;-69
2022/04/26 14:45:12;;;;;;;4.07;1.58;;;12.30;61.20;;;;;;5034765;28;20124;-70
2022/04/26 14:47:40;;;;;;;7.22;1.83;;;12.10;51.20;;;;;;5040772;28;20052;-69
2022/04/26 14:50:09;;;;;;;5.75;1.63;;;12.20;51.90;;;;;;5044380;28;20478;-70
2022/04/26 14:52:36;;;;;;;;;;;12.30;56.90;;;;;;5044364;28;20448;-70
2022/04/26 14:55:04;;;;;;;3.90;1.50;;;12.40;50.40;;;;;;5027290;28;19921;-70
2022/04/26 14:57:30;;;;;;;6.97;1.80;;;12.40;49.20;;;;;;5044885;28;20048;-70
2022/04/26 14:59:55;;;;;;;4.72;1.45;;;12.30;53.30;;;;;;5027029;28;20056;-70
2022/04/26 15:02:22;;;;;;;4.68;1.38;;;12.20;53.10;;;;;;5024204;28;20053;-70
2022/04/26 15:04:49;;;;;;;4.85;1.75;;;12.20;52.30;;;;;;5034579;28;20067;-71
2022/04/26 15:07:14;;;;;;;8.02;2.25;;;11.90;54.30;;;;;;5043764;28;20045;-70
2022/04/26 15:09:44;;;;;;;6.38;1.92;;;12.00;53.80;;;;;;5027808;28;20094;-69
2022/04/26 15:17:49;;;;;;;3.45;1.40;;;12.00;44.70;;;;;;5044380;28;20071;-71
2022/04/26 15:20:17;;;;;;;3.72;1.33;;;11.90;50.50;;;;;;5043513;28;20136;-70
2022/04/26 15:22:43;;;;;;;4.72;1.92;;;11.90;62.80;;;;;;5043207;28;20048;-71
2022/04/26 15:25:09;;;;;;;3.72;1.50;;;11.90;58.70;;;;;;5044144;28;20064;-71
2022/04/26 15:27:39;;;;;;;4.30;1.40;;;11.80;53.60;;;;;;5042797;28;20057;-72
2022/04/26 15:30:08;;;;;;;4.00;1.52;;;11.80;55.50;;;;;;5039802;28;20128;-69
2022/04/26 15:32:34;;;;;;;4.20;1.63;;;11.80;55.40;;;;;;5042391;28;20143;-70
2022/04/26 15:35:00;;;;;;;5.35;2.08;;;11.60;47.00;;;;;;5043353;28;20041;-70
2022/04/26 15:37:27;;;;;;;4.35;1.45;;;11.60;49.30;;;;;;5026582;28;20072;-70
2022/04/26 15:39:54;;;;;;;5.88;1.63;;;11.60;50.20;;;;;;5043557;28;20114;-70
2022/04/26 15:42:21;;;;;;;2.85;1.40;;;11.60;45.00;;;;;;5042717;28;20045;-71
2022/04/26 15:44:48;;;;;;;5.97;1.60;;;11.60;51.20;;;;;;5043973;28;20110;-70
2022/04/26 15:47:14;;;;;;;3.60;1.52;;;11.50;50.30;;;;;;5023143;28;20495;-70
2022/04/26 15:49:40;;;;;;;6.35;1.77;;;11.60;51.00;;;;;;5013638;28;20592;-70
2022/04/26 15:52:07;;;;;;;4.10;1.40;;;11.60;60.20;;;;;;5042614;28;20648;-70
2022/04/26 15:54:34;;;;;;;8.68;1.70;;;11.60;46.20;;;;;;5043435;28;20052;-69
2022/04/26 15:56:59;;;;;;;4.30;1.25;;;11.60;46.00;;;;;;5043574;28;20049;-71
2022/04/26 15:59:25;;;;;;;8.15;1.70;;;11.30;37.00;;;;;;5042779;28;20056;-70
2022/04/26 16:01:51;;;;;;;4.10;1.38;;;11.30;38.00;;;;;;5039796;28;20041;-70
2022/04/26 16:04:16;;;;;;;4.90;1.23;;;11.40;45.40;;;;;;5042680;28;20110;-69
2022/04/26 16:06:42;;;;;;;8.32;1.80;;;11.40;40.40;;;;;;5043085;28;20063;-70
2022/04/26 16:22:52;;;;;;;5.75;1.85;;;11.20;60.10;;;;;;5031763;28;20120;-71
2022/04/26 16:25:19;;;;;;;5.38;1.75;;;11.10;65.00;;;;;;5012789;28;20144;-70
2022/04/26 16:27:48;;;;;;;6.90;1.48;;;11.00;69.50;;;;;;5039283;28;20418;-70
2022/04/26 16:30:15;;;;;;;5.88;1.55;;;10.90;62.60;;;;;;5041281;28;20499;-70
2022/04/26 16:32:43;;;;;;;6.57;1.77;;;10.80;62.10;;;;;;5028680;28;20111;-70
2022/04/26 16:35:13;;;;;;;5.10;1.33;;;10.70;74.40;;;;;;5026228;28;20037;-71
2022/04/26 16:37:39;;;;;;;7.80;1.60;;;10.60;74.00;;;;;;5022066;28;20049;-70
2022/04/26 16:40:06;;;;;;;6.15;1.65;;;10.40;82.10;;;;;;5022372;28;20053;-70
2022/04/26 16:42:32;;;;;;;6.05;1.65;;;10.30;74.10;;;;;;5027020;28;20056;-70
2022/04/26 16:44:58;;;;;;;7.05;1.70;;;10.20;81.80;;;;;;5005958;28;20041;-70
2022/04/26 16:47:24;;;;;;;6.75;1.80;;;10.20;83.00;;;;;;5038883;28;20060;-70
2022/04/26 16:49:49;;;;;;;4.15;1.75;;;10.10;73.00;;;;;;5037505;28;20571;-70
2022/04/26 16:52:15;;;;;;;9.50;1.65;;;10.00;76.20;;;;;;5025971;28;20052;-70
2022/04/26 16:54:43;;;;;;;7.28;2.33;;;9.90;84.60;;;;;;5035061;28;20045;-70
2022/04/26 16:57:09;;;;;;;4.00;1.55;;;9.80;80.40;;;;;;5010577;28;20049;-69
2022/04/26 16:59:35;;;;;;;8.77;1.92;;;9.80;79.70;;;;;;5036439;28;20045;-70
2022/04/26 17:02:01;;;;;;;6.55;1.65;;;9.80;72.90;;;;;;5008062;28;20100;-70
2022/04/26 17:04:27;;;;;;;6.45;1.75;;;9.70;74.70;;;;;;5024366;28;20573;-70
2022/04/26 17:06:53;;;;;;;6.32;1.88;;;9.70;75.50;;;;;;5037473;28;20077;-70
2022/04/26 17:09:20;;;;;;;4.18;1.40;;;9.70;80.40;;;;;;5021805;28;20180;-70
2022/04/26 17:11:50;;;;;;;8.95;1.92;;;9.70;79.90;;;;;;5044281;28;20053;-71
2022/04/26 17:14:18;;;;;;;5.47;1.50;;;9.80;86.30;;;;;;5043872;28;20045;-71
2022/04/26 17:16:46;;;;;;;3.63;1.65;;;9.70;90.40;;;;;;5044564;28;20049;-70
2022/04/26 17:19:15;;;;;;;9.00;1.67;;;9.70;86.50;;;;;;5023679;28;20045;-71